sensor_id;sensor_type;location;lat;lon;timestamp;P1;durP1;ratioP1;P2;durP2;ratioP2
67442;SDS011;54311;51.726;5.154;2023-04-27T00:01:35;12.90;;;11.57;;
67442;SDS011;54311;51.726;5.154;2023-04-27T00:04:01;12.43;;;11.32;;
67442;SDS011;54311;51.726;5.154;2023-04-27T00:06:28;12.90;;;11.35;;
67442;SDS011;54311;51.726;5.154;2023-04-27T00:08:53;15.85;;;12.32;;
67442;SDS011;54311;51.726;5.154;2023-04-27T00:11:19;12.30;;;10.85;;
67442;SDS011;54311;51.726;5.154;2023-04-27T00:13:45;13.55;;;10.70;;
67442;SDS011;54311;51.726;5.154;2023-04-27T00:16:10;10.90;;;9.80;;
67442;SDS011;54311;51.726;5.154;2023-04-27T00:18:35;12.00;;;10.85;;
67442;SDS011;54311;51.726;5.154;2023-04-27T00:21:01;14.15;;;12.07;;
67442;SDS011;54311;51.726;5.154;2023-04-27T00:23:26;13.23;;;11.65;;
67442;SDS011;54311;51.726;5.154;2023-04-27T00:25:52;12.88;;;11.57;;
67442;SDS011;54311;51.726;5.154;2023-04-27T00:28:17;12.30;;;11.18;;
67442;SDS011;54311;51.726;5.154;2023-04-27T00:30:42;13.35;;;11.95;;
67442;SDS011;54311;51.726;5.154;2023-04-27T00:33:09;14.85;;;11.98;;
67442;SDS011;54311;51.726;5.154;2023-04-27T00:35:34;12.95;;;11.63;;
67442;SDS011;54311;51.726;5.154;2023-04-27T00:37:59;18.10;;;12.45;;
67442;SDS011;54311;51.726;5.154;2023-04-27T00:40:25;13.27;;;11.98;;
67442;SDS011;54311;51.726;5.154;2023-04-27T00:42:50;13.32;;;11.93;;
67442;SDS011;54311;51.726;5.154;2023-04-27T00:45:16;15.30;;;11.60;;
67442;SDS011;54311;51.726;5.154;2023-04-27T00:47:41;13.88;;;12.00;;
67442;SDS011;54311;51.726;5.154;2023-04-27T00:50:07;14.48;;;11.77;;
67442;SDS011;54311;51.726;5.154;2023-04-27T00:52:37;13.15;;;11.77;;
67442;SDS011;54311;51.726;5.154;2023-04-27T00:55:03;12.88;;;11.30;;
67442;SDS011;54311;51.726;5.154;2023-04-27T00:57:29;12.88;;;11.77;;
67442;SDS011;54311;51.726;5.154;2023-04-27T00:59:55;13.13;;;11.90;;
67442;SDS011;54311;51.726;5.154;2023-04-27T01:02:20;13.52;;;12.13;;
67442;SDS011;54311;51.726;5.154;2023-04-27T01:04:46;13.02;;;11.82;;
67442;SDS011;54311;51.726;5.154;2023-04-27T01:07:12;15.13;;;12.32;;
67442;SDS011;54311;51.726;5.154;2023-04-27T01:09:37;14.73;;;12.65;;
67442;SDS011;54311;51.726;5.154;2023-04-27T01:12:03;14.60;;;11.05;;
67442;SDS011;54311;51.726;5.154;2023-04-27T01:14:28;16.38;;;12.30;;
67442;SDS011;54311;51.726;5.154;2023-04-27T01:16:54;13.85;;;11.82;;
67442;SDS011;54311;51.726;5.154;2023-04-27T01:19:19;14.77;;;11.68;;
67442;SDS011;54311;51.726;5.154;2023-04-27T01:21:46;13.63;;;12.20;;
67442;SDS011;54311;51.726;5.154;2023-04-27T01:24:11;13.90;;;12.23;;
67442;SDS011;54311;51.726;5.154;2023-04-27T01:26:37;12.98;;;11.88;;
67442;SDS011;54311;51.726;5.154;2023-04-27T01:29:02;13.82;;;12.13;;
67442;SDS011;54311;51.726;5.154;2023-04-27T01:31:27;14.38;;;12.05;;
67442;SDS011;54311;51.726;5.154;2023-04-27T01:33:53;14.23;;;12.05;;
67442;SDS011;54311;51.726;5.154;2023-04-27T01:36:19;12.80;;;11.60;;
67442;SDS011;54311;51.726;5.154;2023-04-27T01:38:44;13.10;;;11.82;;
67442;SDS011;54311;51.726;5.154;2023-04-27T01:41:10;14.18;;;11.52;;
67442;SDS011;54311;51.726;5.154;2023-04-27T01:43:35;14.18;;;11.55;;
67442;SDS011;54311;51.726;5.154;2023-04-27T01:46:04;12.45;;;11.32;;
67442;SDS011;54311;51.726;5.154;2023-04-27T01:48:30;12.40;;;11.30;;
67442;SDS011;54311;51.726;5.154;2023-04-27T01:50:55;13.25;;;11.95;;
67442;SDS011;54311;51.726;5.154;2023-04-27T01:53:21;13.73;;;11.05;;
67442;SDS011;54311;51.726;5.154;2023-04-27T01:55:46;11.48;;;10.50;;
67442;SDS011;54311;51.726;5.154;2023-04-27T01:58:11;11.40;;;10.27;;
67442;SDS011;54311;51.726;5.154;2023-04-27T02:00:37;12.80;;;10.23;;
67442;SDS011;54311;51.726;5.154;2023-04-27T02:03:02;11.25;;;10.25;;
67442;SDS011;54311;51.726;5.154;2023-04-27T02:05:27;11.57;;;10.68;;
67442;SDS011;54311;51.726;5.154;2023-04-27T02:07:53;11.07;;;9.90;;
67442;SDS011;54311;51.726;5.154;2023-04-27T02:10:19;12.00;;;10.70;;
67442;SDS011;54311;51.726;5.154;2023-04-27T02:12:46;11.43;;;10.38;;
67442;SDS011;54311;51.726;5.154;2023-04-27T02:15:12;11.32;;;10.40;;
67442;SDS011;54311;51.726;5.154;2023-04-27T02:17:37;11.90;;;10.80;;
67442;SDS011;54311;51.726;5.154;2023-04-27T02:20:03;11.15;;;10.18;;
67442;SDS011;54311;51.726;5.154;2023-04-27T02:22:31;11.52;;;10.40;;
67442;SDS011;54311;51.726;5.154;2023-04-27T02:24:56;11.95;;;10.75;;
67442;SDS011;54311;51.726;5.154;2023-04-27T02:27:21;12.25;;;10.93;;
67442;SDS011;54311;51.726;5.154;2023-04-27T02:29:47;11.68;;;10.68;;
67442;SDS011;54311;51.726;5.154;2023-04-27T02:32:12;12.63;;;10.55;;
67442;SDS011;54311;51.726;5.154;2023-04-27T02:34:37;12.30;;;10.57;;
67442;SDS011;54311;51.726;5.154;2023-04-27T02:37:03;11.73;;;10.57;;
67442;SDS011;54311;51.726;5.154;2023-04-27T02:39:28;11.20;;;10.07;;
67442;SDS011;54311;51.726;5.154;2023-04-27T02:41:53;10.60;;;9.57;;
67442;SDS011;54311;51.726;5.154;2023-04-27T02:44:19;10.68;;;9.77;;
67442;SDS011;54311;51.726;5.154;2023-04-27T02:46:44;11.05;;;10.15;;
67442;SDS011;54311;51.726;5.154;2023-04-27T02:49:09;10.48;;;9.57;;
67442;SDS011;54311;51.726;5.154;2023-04-27T02:51:35;10.77;;;9.93;;
67442;SDS011;54311;51.726;5.154;2023-04-27T02:54:00;11.68;;;9.18;;
67442;SDS011;54311;51.726;5.154;2023-04-27T02:56:25;10.38;;;9.30;;
67442;SDS011;54311;51.726;5.154;2023-04-27T02:58:51;10.57;;;9.48;;
67442;SDS011;54311;51.726;5.154;2023-04-27T03:01:16;10.45;;;9.25;;
67442;SDS011;54311;51.726;5.154;2023-04-27T03:03:45;9.85;;;8.98;;
67442;SDS011;54311;51.726;5.154;2023-04-27T03:06:11;14.70;;;9.30;;
67442;SDS011;54311;51.726;5.154;2023-04-27T03:08:36;9.63;;;8.52;;
67442;SDS011;54311;51.726;5.154;2023-04-27T03:11:02;10.60;;;9.63;;
67442;SDS011;54311;51.726;5.154;2023-04-27T03:13:27;9.93;;;9.10;;
67442;SDS011;54311;51.726;5.154;2023-04-27T03:15:53;10.82;;;9.80;;
67442;SDS011;54311;51.726;5.154;2023-04-27T03:18:18;9.52;;;8.55;;
67442;SDS011;54311;51.726;5.154;2023-04-27T03:20:43;9.35;;;8.70;;
67442;SDS011;54311;51.726;5.154;2023-04-27T03:23:09;10.48;;;9.57;;
67442;SDS011;54311;51.726;5.154;2023-04-27T03:25:34;11.88;;;9.35;;
67442;SDS011;54311;51.726;5.154;2023-04-27T03:28:00;10.93;;;9.75;;
67442;SDS011;54311;51.726;5.154;2023-04-27T03:30:25;9.90;;;9.10;;
67442;SDS011;54311;51.726;5.154;2023-04-27T03:32:50;8.73;;;8.02;;
67442;SDS011;54311;51.726;5.154;2023-04-27T03:35:15;9.60;;;8.95;;
67442;SDS011;54311;51.726;5.154;2023-04-27T03:37:41;10.43;;;8.63;;
67442;SDS011;54311;51.726;5.154;2023-04-27T03:40:11;10.55;;;9.40;;
67442;SDS011;54311;51.726;5.154;2023-04-27T03:42:36;12.35;;;9.52;;
67442;SDS011;54311;51.726;5.154;2023-04-27T03:45:02;10.48;;;9.57;;
67442;SDS011;54311;51.726;5.154;2023-04-27T03:47:28;9.43;;;8.75;;
67442;SDS011;54311;51.726;5.154;2023-04-27T03:49:53;9.50;;;8.80;;
67442;SDS011;54311;51.726;5.154;2023-04-27T03:52:18;11.43;;;10.27;;
67442;SDS011;54311;51.726;5.154;2023-04-27T03:54:44;10.20;;;9.32;;
67442;SDS011;54311;51.726;5.154;2023-04-27T03:57:09;10.63;;;9.25;;
67442;SDS011;54311;51.726;5.154;2023-04-27T03:59:35;11.25;;;8.80;;
67442;SDS011;54311;51.726;5.154;2023-04-27T04:02:00;9.77;;;8.88;;
67442;SDS011;54311;51.726;5.154;2023-04-27T04:04:27;10.80;;;9.90;;
67442;SDS011;54311;51.726;5.154;2023-04-27T04:06:53;11.63;;;9.32;;
67442;SDS011;54311;51.726;5.154;2023-04-27T04:09:18;14.20;;;9.73;;
67442;SDS011;54311;51.726;5.154;2023-04-27T04:11:44;10.07;;;9.35;;
67442;SDS011;54311;51.726;5.154;2023-04-27T04:14:09;10.57;;;9.68;;
67442;SDS011;54311;51.726;5.154;2023-04-27T04:16:34;10.30;;;9.25;;
67442;SDS011;54311;51.726;5.154;2023-04-27T04:19:00;10.73;;;9.80;;
67442;SDS011;54311;51.726;5.154;2023-04-27T04:21:25;11.07;;;9.73;;
67442;SDS011;54311;51.726;5.154;2023-04-27T04:23:50;10.25;;;9.45;;
67442;SDS011;54311;51.726;5.154;2023-04-27T04:26:16;10.55;;;9.70;;
67442;SDS011;54311;51.726;5.154;2023-04-27T04:28:42;10.68;;;9.88;;
67442;SDS011;54311;51.726;5.154;2023-04-27T04:31:08;10.20;;;9.18;;
67442;SDS011;54311;51.726;5.154;2023-04-27T04:33:33;11.00;;;10.10;;
67442;SDS011;54311;51.726;5.154;2023-04-27T04:35:59;12.10;;;10.07;;
67442;SDS011;54311;51.726;5.154;2023-04-27T04:38:27;12.45;;;9.35;;
67442;SDS011;54311;51.726;5.154;2023-04-27T04:40:53;9.32;;;8.55;;
67442;SDS011;54311;51.726;5.154;2023-04-27T04:43:18;10.55;;;9.45;;
67442;SDS011;54311;51.726;5.154;2023-04-27T04:45:43;10.10;;;9.30;;
67442;SDS011;54311;51.726;5.154;2023-04-27T04:48:09;10.93;;;9.82;;
67442;SDS011;54311;51.726;5.154;2023-04-27T04:50:35;10.77;;;9.90;;
67442;SDS011;54311;51.726;5.154;2023-04-27T04:53:00;11.10;;;10.10;;
67442;SDS011;54311;51.726;5.154;2023-04-27T04:55:26;11.88;;;10.00;;
67442;SDS011;54311;51.726;5.154;2023-04-27T04:57:52;10.35;;;9.32;;
67442;SDS011;54311;51.726;5.154;2023-04-27T05:00:17;10.60;;;9.55;;
67442;SDS011;54311;51.726;5.154;2023-04-27T05:02:43;10.55;;;9.75;;
67442;SDS011;54311;51.726;5.154;2023-04-27T05:05:08;10.45;;;9.55;;
67442;SDS011;54311;51.726;5.154;2023-04-27T05:07:34;11.18;;;9.60;;
67442;SDS011;54311;51.726;5.154;2023-04-27T05:09:59;13.13;;;10.48;;
67442;SDS011;54311;51.726;5.154;2023-04-27T05:12:24;10.60;;;9.70;;
67442;SDS011;54311;51.726;5.154;2023-04-27T05:14:50;11.57;;;10.50;;
67442;SDS011;54311;51.726;5.154;2023-04-27T05:17:16;10.57;;;9.60;;
67442;SDS011;54311;51.726;5.154;2023-04-27T05:19:41;10.63;;;9.73;;
67442;SDS011;54311;51.726;5.154;2023-04-27T05:22:06;10.15;;;9.20;;
67442;SDS011;54311;51.726;5.154;2023-04-27T05:24:32;10.43;;;9.52;;
67442;SDS011;54311;51.726;5.154;2023-04-27T05:26:58;10.85;;;9.80;;
67442;SDS011;54311;51.726;5.154;2023-04-27T05:29:23;12.45;;;10.07;;
67442;SDS011;54311;51.726;5.154;2023-04-27T05:31:49;9.85;;;9.13;;
67442;SDS011;54311;51.726;5.154;2023-04-27T05:34:14;14.07;;;9.75;;
67442;SDS011;54311;51.726;5.154;2023-04-27T05:36:39;13.43;;;10.45;;
67442;SDS011;54311;51.726;5.154;2023-04-27T05:39:05;10.75;;;9.73;;
67442;SDS011;54311;51.726;5.154;2023-04-27T05:41:31;13.98;;;9.85;;
67442;SDS011;54311;51.726;5.154;2023-04-27T05:43:56;10.98;;;10.00;;
67442;SDS011;54311;51.726;5.154;2023-04-27T05:46:22;11.00;;;10.05;;
67442;SDS011;54311;51.726;5.154;2023-04-27T05:48:47;10.93;;;9.75;;
67442;SDS011;54311;51.726;5.154;2023-04-27T05:51:12;10.70;;;9.75;;
67442;SDS011;54311;51.726;5.154;2023-04-27T05:53:38;10.35;;;9.55;;
67442;SDS011;54311;51.726;5.154;2023-04-27T05:56:03;11.07;;;9.90;;
67442;SDS011;54311;51.726;5.154;2023-04-27T05:58:30;11.45;;;10.23;;
67442;SDS011;54311;51.726;5.154;2023-04-27T06:00:57;10.93;;;10.02;;
67442;SDS011;54311;51.726;5.154;2023-04-27T06:03:22;11.07;;;9.73;;
67442;SDS011;54311;51.726;5.154;2023-04-27T06:05:52;14.07;;;9.88;;
67442;SDS011;54311;51.726;5.154;2023-04-27T06:08:18;16.20;;;9.68;;
67442;SDS011;54311;51.726;5.154;2023-04-27T06:10:43;10.93;;;9.60;;
67442;SDS011;54311;51.726;5.154;2023-04-27T06:13:09;11.50;;;9.32;;
67442;SDS011;54311;51.726;5.154;2023-04-27T06:15:34;11.63;;;9.07;;
67442;SDS011;54311;51.726;5.154;2023-04-27T06:18:00;13.23;;;9.02;;
67442;SDS011;54311;51.726;5.154;2023-04-27T06:20:25;12.80;;;8.60;;
67442;SDS011;54311;51.726;5.154;2023-04-27T06:22:51;10.45;;;9.18;;
67442;SDS011;54311;51.726;5.154;2023-04-27T06:25:16;9.13;;;8.23;;
67442;SDS011;54311;51.726;5.154;2023-04-27T06:27:41;9.55;;;7.90;;
67442;SDS011;54311;51.726;5.154;2023-04-27T06:30:07;8.55;;;7.68;;
67442;SDS011;54311;51.726;5.154;2023-04-27T06:32:32;8.80;;;8.00;;
67442;SDS011;54311;51.726;5.154;2023-04-27T06:34:57;9.00;;;8.02;;
67442;SDS011;54311;51.726;5.154;2023-04-27T06:37:23;8.48;;;7.78;;
67442;SDS011;54311;51.726;5.154;2023-04-27T06:39:49;9.13;;;8.25;;
67442;SDS011;54311;51.726;5.154;2023-04-27T06:42:14;9.90;;;8.43;;
67442;SDS011;54311;51.726;5.154;2023-04-27T06:44:40;8.20;;;7.50;;
67442;SDS011;54311;51.726;5.154;2023-04-27T06:47:05;10.35;;;7.50;;
67442;SDS011;54311;51.726;5.154;2023-04-27T06:49:31;11.05;;;7.93;;
67442;SDS011;54311;51.726;5.154;2023-04-27T06:51:57;8.60;;;7.80;;
67442;SDS011;54311;51.726;5.154;2023-04-27T06:54:22;9.70;;;8.40;;
67442;SDS011;54311;51.726;5.154;2023-04-27T06:56:47;9.52;;;8.00;;
67442;SDS011;54311;51.726;5.154;2023-04-27T06:59:13;9.50;;;7.88;;
67442;SDS011;54311;51.726;5.154;2023-04-27T07:01:38;8.30;;;7.70;;
67442;SDS011;54311;51.726;5.154;2023-04-27T07:04:04;10.30;;;8.35;;
67442;SDS011;54311;51.726;5.154;2023-04-27T07:06:29;8.98;;;8.00;;
67442;SDS011;54311;51.726;5.154;2023-04-27T07:08:55;11.18;;;8.05;;
67442;SDS011;54311;51.726;5.154;2023-04-27T07:11:21;11.32;;;8.77;;
67442;SDS011;54311;51.726;5.154;2023-04-27T07:13:46;15.35;;;8.32;;
67442;SDS011;54311;51.726;5.154;2023-04-27T07:16:12;9.25;;;8.00;;
67442;SDS011;54311;51.726;5.154;2023-04-27T07:18:37;9.57;;;7.80;;
67442;SDS011;54311;51.726;5.154;2023-04-27T07:21:02;9.00;;;7.97;;
67442;SDS011;54311;51.726;5.154;2023-04-27T07:23:28;8.85;;;8.07;;
67442;SDS011;54311;51.726;5.154;2023-04-27T07:25:53;10.27;;;8.43;;
67442;SDS011;54311;51.726;5.154;2023-04-27T07:28:18;9.15;;;8.27;;
67442;SDS011;54311;51.726;5.154;2023-04-27T07:30:44;8.73;;;7.93;;
67442;SDS011;54311;51.726;5.154;2023-04-27T07:33:09;8.80;;;7.80;;
67442;SDS011;54311;51.726;5.154;2023-04-27T07:35:35;11.63;;;7.65;;
67442;SDS011;54311;51.726;5.154;2023-04-27T07:38:01;8.80;;;7.68;;
67442;SDS011;54311;51.726;5.154;2023-04-27T07:40:27;7.45;;;6.82;;
67442;SDS011;54311;51.726;5.154;2023-04-27T07:42:53;7.97;;;7.28;;
67442;SDS011;54311;51.726;5.154;2023-04-27T07:45:19;9.30;;;7.38;;
67442;SDS011;54311;51.726;5.154;2023-04-27T07:47:45;7.97;;;7.18;;
67442;SDS011;54311;51.726;5.154;2023-04-27T07:50:11;7.93;;;7.18;;
67442;SDS011;54311;51.726;5.154;2023-04-27T07:52:38;9.70;;;7.43;;
67442;SDS011;54311;51.726;5.154;2023-04-27T07:55:04;11.68;;;7.97;;
67442;SDS011;54311;51.726;5.154;2023-04-27T07:57:29;7.88;;;7.13;;
67442;SDS011;54311;51.726;5.154;2023-04-27T07:59:55;8.95;;;7.53;;
67442;SDS011;54311;51.726;5.154;2023-04-27T08:02:21;8.57;;;7.53;;
67442;SDS011;54311;51.726;5.154;2023-04-27T08:04:47;7.88;;;7.07;;
67442;SDS011;54311;51.726;5.154;2023-04-27T08:07:13;9.57;;;6.97;;
67442;SDS011;54311;51.726;5.154;2023-04-27T08:09:42;7.05;;;6.35;;
67442;SDS011;54311;51.726;5.154;2023-04-27T08:12:07;9.40;;;6.53;;
67442;SDS011;54311;51.726;5.154;2023-04-27T08:14:33;10.52;;;7.30;;
67442;SDS011;54311;51.726;5.154;2023-04-27T08:16:59;7.22;;;6.70;;
67442;SDS011;54311;51.726;5.154;2023-04-27T08:19:24;11.45;;;7.20;;
67442;SDS011;54311;51.726;5.154;2023-04-27T08:21:50;7.75;;;7.05;;
67442;SDS011;54311;51.726;5.154;2023-04-27T08:24:15;11.57;;;7.13;;
67442;SDS011;54311;51.726;5.154;2023-04-27T08:26:40;9.23;;;7.05;;
67442;SDS011;54311;51.726;5.154;2023-04-27T08:29:06;11.40;;;7.57;;
67442;SDS011;54311;51.726;5.154;2023-04-27T08:31:31;9.07;;;7.03;;
67442;SDS011;54311;51.726;5.154;2023-04-27T08:33:56;9.38;;;7.40;;
67442;SDS011;54311;51.726;5.154;2023-04-27T08:36:22;8.02;;;7.25;;
67442;SDS011;54311;51.726;5.154;2023-04-27T08:38:48;8.57;;;7.05;;
67442;SDS011;54311;51.726;5.154;2023-04-27T08:41:17;8.73;;;6.88;;
67442;SDS011;54311;51.726;5.154;2023-04-27T08:43:46;7.13;;;6.53;;
67442;SDS011;54311;51.726;5.154;2023-04-27T08:46:16;7.43;;;6.60;;
67442;SDS011;54311;51.726;5.154;2023-04-27T08:48:43;7.38;;;6.68;;
67442;SDS011;54311;51.726;5.154;2023-04-27T08:51:08;7.15;;;6.45;;
67442;SDS011;54311;51.726;5.154;2023-04-27T08:53:35;12.95;;;7.65;;
67442;SDS011;54311;51.726;5.154;2023-04-27T08:56:00;8.63;;;6.90;;
67442;SDS011;54311;51.726;5.154;2023-04-27T08:58:38;7.20;;;6.50;;
67442;SDS011;54311;51.726;5.154;2023-04-27T09:01:04;7.68;;;7.03;;
67442;SDS011;54311;51.726;5.154;2023-04-27T09:03:30;8.77;;;6.72;;
67442;SDS011;54311;51.726;5.154;2023-04-27T09:05:56;6.88;;;6.38;;
67442;SDS011;54311;51.726;5.154;2023-04-27T09:08:21;7.57;;;6.18;;
67442;SDS011;54311;51.726;5.154;2023-04-27T09:10:47;9.25;;;5.93;;
67442;SDS011;54311;51.726;5.154;2023-04-27T09:13:16;6.30;;;5.90;;
67442;SDS011;54311;51.726;5.154;2023-04-27T09:18:21;7.57;;;6.75;;
67442;SDS011;54311;51.726;5.154;2023-04-27T09:20:48;8.77;;;6.15;;
67442;SDS011;54311;51.726;5.154;2023-04-27T09:26:02;6.78;;;6.28;;
67442;SDS011;54311;51.726;5.154;2023-04-27T09:28:32;7.85;;;6.50;;
67442;SDS011;54311;51.726;5.154;2023-04-27T09:30:59;7.70;;;6.25;;
67442;SDS011;54311;51.726;5.154;2023-04-27T09:33:28;7.13;;;6.20;;
67442;SDS011;54311;51.726;5.154;2023-04-27T09:35:56;8.93;;;6.97;;
67442;SDS011;54311;51.726;5.154;2023-04-27T09:38:23;8.25;;;7.45;;
67442;SDS011;54311;51.726;5.154;2023-04-27T09:40:48;8.05;;;7.35;;
67442;SDS011;54311;51.726;5.154;2023-04-27T09:43:15;8.15;;;6.90;;
67442;SDS011;54311;51.726;5.154;2023-04-27T09:45:40;11.73;;;7.43;;
67442;SDS011;54311;51.726;5.154;2023-04-27T09:48:06;7.78;;;6.97;;
67442;SDS011;54311;51.726;5.154;2023-04-27T09:50:35;10.95;;;7.22;;
67442;SDS011;54311;51.726;5.154;2023-04-27T09:53:04;11.23;;;6.95;;
67442;SDS011;54311;51.726;5.154;2023-04-27T09:55:33;8.88;;;6.78;;
67442;SDS011;54311;51.726;5.154;2023-04-27T09:58:08;7.35;;;6.70;;
67442;SDS011;54311;51.726;5.154;2023-04-27T10:03:38;8.18;;;7.47;;
67442;SDS011;54311;51.726;5.154;2023-04-27T10:06:27;8.73;;;6.95;;
67442;SDS011;54311;51.726;5.154;2023-04-27T10:09:02;8.25;;;7.40;;
67442;SDS011;54311;51.726;5.154;2023-04-27T10:11:37;7.80;;;6.68;;
67442;SDS011;54311;51.726;5.154;2023-04-27T10:14:05;7.90;;;7.20;;
67442;SDS011;54311;51.726;5.154;2023-04-27T10:16:38;7.95;;;7.25;;
67442;SDS011;54311;51.726;5.154;2023-04-27T10:19:08;9.53;;;7.83;;
67442;SDS011;54311;51.726;5.154;2023-04-27T10:21:34;9.10;;;8.32;;
67442;SDS011;54311;51.726;5.154;2023-04-27T10:24:05;11.18;;;8.25;;
67442;SDS011;54311;51.726;5.154;2023-04-27T10:26:32;7.78;;;7.07;;
67442;SDS011;54311;51.726;5.154;2023-04-27T10:29:04;8.30;;;7.70;;
67442;SDS011;54311;51.726;5.154;2023-04-27T10:31:31;8.27;;;7.70;;
67442;SDS011;54311;51.726;5.154;2023-04-27T10:34:07;9.48;;;7.60;;
67442;SDS011;54311;51.726;5.154;2023-04-27T10:36:33;9.45;;;8.20;;
67442;SDS011;54311;51.726;5.154;2023-04-27T10:39:02;8.30;;;7.50;;
67442;SDS011;54311;51.726;5.154;2023-04-27T10:41:55;14.18;;;8.07;;
67442;SDS011;54311;51.726;5.154;2023-04-27T10:44:27;8.52;;;7.65;;
67442;SDS011;54311;51.726;5.154;2023-04-27T10:46:53;9.52;;;8.63;;
67442;SDS011;54311;51.726;5.154;2023-04-27T10:49:20;10.98;;;7.72;;
67442;SDS011;54311;51.726;5.154;2023-04-27T10:51:47;8.23;;;7.53;;
67442;SDS011;54311;51.726;5.154;2023-04-27T10:54:14;7.93;;;7.28;;
67442;SDS011;54311;51.726;5.154;2023-04-27T10:56:39;8.98;;;8.15;;
67442;SDS011;54311;51.726;5.154;2023-04-27T10:59:05;9.07;;;8.30;;
67442;SDS011;54311;51.726;5.154;2023-04-27T11:01:31;9.05;;;8.10;;
67442;SDS011;54311;51.726;5.154;2023-04-27T11:03:57;12.68;;;7.43;;
67442;SDS011;54311;51.726;5.154;2023-04-27T11:06:23;8.40;;;7.57;;
67442;SDS011;54311;51.726;5.154;2023-04-27T11:08:49;10.07;;;7.63;;
67442;SDS011;54311;51.726;5.154;2023-04-27T11:11:14;8.02;;;7.38;;
67442;SDS011;54311;51.726;5.154;2023-04-27T11:13:41;8.20;;;7.60;;
67442;SDS011;54311;51.726;5.154;2023-04-27T11:16:07;9.20;;;8.30;;
67442;SDS011;54311;51.726;5.154;2023-04-27T11:18:35;8.63;;;8.00;;
67442;SDS011;54311;51.726;5.154;2023-04-27T11:21:07;8.38;;;7.70;;
67442;SDS011;54311;51.726;5.154;2023-04-27T11:23:36;9.35;;;7.88;;
67442;SDS011;54311;51.726;5.154;2023-04-27T11:26:09;8.70;;;7.78;;
67442;SDS011;54311;51.726;5.154;2023-04-27T11:28:34;8.80;;;7.93;;
67442;SDS011;54311;51.726;5.154;2023-04-27T11:31:00;8.60;;;7.82;;
67442;SDS011;54311;51.726;5.154;2023-04-27T11:33:26;8.32;;;7.78;;
67442;SDS011;54311;51.726;5.154;2023-04-27T11:35:51;10.10;;;8.73;;
67442;SDS011;54311;51.726;5.154;2023-04-27T11:38:17;11.45;;;8.48;;
67442;SDS011;54311;51.726;5.154;2023-04-27T11:40:44;9.23;;;7.55;;
67442;SDS011;54311;51.726;5.154;2023-04-27T11:43:11;8.32;;;7.53;;
67442;SDS011;54311;51.726;5.154;2023-04-27T11:45:40;8.40;;;7.70;;
67442;SDS011;54311;51.726;5.154;2023-04-27T11:48:06;9.95;;;8.25;;
67442;SDS011;54311;51.726;5.154;2023-04-27T11:50:31;9.23;;;8.32;;
67442;SDS011;54311;51.726;5.154;2023-04-27T11:52:59;9.70;;;8.40;;
67442;SDS011;54311;51.726;5.154;2023-04-27T11:55:24;12.18;;;8.50;;
67442;SDS011;54311;51.726;5.154;2023-04-27T11:57:55;9.25;;;8.30;;
67442;SDS011;54311;51.726;5.154;2023-04-27T12:00:22;9.77;;;8.85;;
67442;SDS011;54311;51.726;5.154;2023-04-27T12:02:48;8.65;;;7.68;;
67442;SDS011;54311;51.726;5.154;2023-04-27T12:05:13;12.40;;;8.25;;
67442;SDS011;54311;51.726;5.154;2023-04-27T12:07:39;10.35;;;8.30;;
67442;SDS011;54311;51.726;5.154;2023-04-27T12:10:05;9.63;;;8.75;;
67442;SDS011;54311;51.726;5.154;2023-04-27T12:12:31;8.95;;;8.15;;
67442;SDS011;54311;51.726;5.154;2023-04-27T12:14:57;10.45;;;8.93;;
67442;SDS011;54311;51.726;5.154;2023-04-27T12:17:23;9.07;;;8.32;;
67442;SDS011;54311;51.726;5.154;2023-04-27T12:19:48;11.70;;;8.20;;
67442;SDS011;54311;51.726;5.154;2023-04-27T12:22:13;9.35;;;8.50;;
67442;SDS011;54311;51.726;5.154;2023-04-27T12:24:39;8.68;;;7.97;;
67442;SDS011;54311;51.726;5.154;2023-04-27T12:27:04;11.40;;;8.73;;
67442;SDS011;54311;51.726;5.154;2023-04-27T12:29:30;9.80;;;8.90;;
67442;SDS011;54311;51.726;5.154;2023-04-27T12:31:57;9.45;;;8.63;;
67442;SDS011;54311;51.726;5.154;2023-04-27T12:34:23;14.52;;;8.43;;
67442;SDS011;54311;51.726;5.154;2023-04-27T12:36:48;10.82;;;9.18;;
67442;SDS011;54311;51.726;5.154;2023-04-27T12:39:17;10.00;;;9.15;;
67442;SDS011;54311;51.726;5.154;2023-04-27T12:41:44;8.90;;;8.10;;
67442;SDS011;54311;51.726;5.154;2023-04-27T12:44:11;9.98;;;9.15;;
67442;SDS011;54311;51.726;5.154;2023-04-27T12:46:37;9.68;;;8.85;;
67442;SDS011;54311;51.726;5.154;2023-04-27T12:49:06;12.05;;;8.45;;
67442;SDS011;54311;51.726;5.154;2023-04-27T12:51:37;9.52;;;8.43;;
67442;SDS011;54311;51.726;5.154;2023-04-27T12:54:03;11.38;;;8.77;;
67442;SDS011;54311;51.726;5.154;2023-04-27T12:56:29;10.57;;;9.20;;
67442;SDS011;54311;51.726;5.154;2023-04-27T12:58:55;10.85;;;9.15;;
67442;SDS011;54311;51.726;5.154;2023-04-27T13:01:20;9.77;;;9.05;;
67442;SDS011;54311;51.726;5.154;2023-04-27T13:03:50;9.77;;;8.75;;
67442;SDS011;54311;51.726;5.154;2023-04-27T13:06:16;10.25;;;9.25;;
67442;SDS011;54311;51.726;5.154;2023-04-27T13:08:41;10.88;;;9.20;;
67442;SDS011;54311;51.726;5.154;2023-04-27T13:11:06;10.60;;;9.60;;
67442;SDS011;54311;51.726;5.154;2023-04-27T13:13:32;12.25;;;8.88;;
67442;SDS011;54311;51.726;5.154;2023-04-27T13:15:57;9.90;;;8.90;;
67442;SDS011;54311;51.726;5.154;2023-04-27T13:18:23;9.93;;;8.95;;
67442;SDS011;54311;51.726;5.154;2023-04-27T13:20:48;10.75;;;7.75;;
67442;SDS011;54311;51.726;5.154;2023-04-27T13:23:14;8.45;;;7.85;;
67442;SDS011;54311;51.726;5.154;2023-04-27T13:25:40;8.98;;;8.27;;
67442;SDS011;54311;51.726;5.154;2023-04-27T13:28:05;10.82;;;9.68;;
67442;SDS011;54311;51.726;5.154;2023-04-27T13:30:31;11.30;;;8.85;;
67442;SDS011;54311;51.726;5.154;2023-04-27T13:32:57;9.63;;;8.73;;
67442;SDS011;54311;51.726;5.154;2023-04-27T13:35:22;9.60;;;8.75;;
67442;SDS011;54311;51.726;5.154;2023-04-27T13:37:48;14.25;;;7.93;;
67442;SDS011;54311;51.726;5.154;2023-04-27T13:40:15;8.52;;;7.70;;
67442;SDS011;54311;51.726;5.154;2023-04-27T13:42:40;8.70;;;7.68;;
67442;SDS011;54311;51.726;5.154;2023-04-27T13:45:06;8.65;;;7.95;;
67442;SDS011;54311;51.726;5.154;2023-04-27T13:47:31;8.70;;;7.90;;
67442;SDS011;54311;51.726;5.154;2023-04-27T13:50:03;8.30;;;7.65;;
67442;SDS011;54311;51.726;5.154;2023-04-27T13:52:32;8.50;;;7.70;;
67442;SDS011;54311;51.726;5.154;2023-04-27T13:54:58;8.10;;;7.40;;
67442;SDS011;54311;51.726;5.154;2023-04-27T13:57:23;10.77;;;7.93;;
67442;SDS011;54311;51.726;5.154;2023-04-27T13:59:49;12.63;;;7.70;;
67442;SDS011;54311;51.726;5.154;2023-04-27T14:02:15;8.55;;;7.75;;
67442;SDS011;54311;51.726;5.154;2023-04-27T14:04:40;7.85;;;7.30;;
67442;SDS011;54311;51.726;5.154;2023-04-27T14:07:06;9.25;;;7.63;;
67442;SDS011;54311;51.726;5.154;2023-04-27T14:09:31;9.07;;;8.13;;
67442;SDS011;54311;51.726;5.154;2023-04-27T14:11:56;8.70;;;8.00;;
67442;SDS011;54311;51.726;5.154;2023-04-27T14:14:22;9.90;;;9.00;;
67442;SDS011;54311;51.726;5.154;2023-04-27T14:16:47;10.10;;;9.05;;
67442;SDS011;54311;51.726;5.154;2023-04-27T14:19:14;9.63;;;8.80;;
67442;SDS011;54311;51.726;5.154;2023-04-27T14:21:40;9.25;;;8.40;;
67442;SDS011;54311;51.726;5.154;2023-04-27T14:24:06;9.48;;;8.10;;
67442;SDS011;54311;51.726;5.154;2023-04-27T14:26:31;8.65;;;7.75;;
67442;SDS011;54311;51.726;5.154;2023-04-27T14:28:57;9.10;;;8.43;;
67442;SDS011;54311;51.726;5.154;2023-04-27T14:31:22;8.43;;;7.80;;
67442;SDS011;54311;51.726;5.154;2023-04-27T14:33:49;8.70;;;7.70;;
67442;SDS011;54311;51.726;5.154;2023-04-27T14:36:14;9.88;;;7.53;;
67442;SDS011;54311;51.726;5.154;2023-04-27T14:38:42;9.05;;;8.25;;
67442;SDS011;54311;51.726;5.154;2023-04-27T14:41:07;9.82;;;8.50;;